Time;durP1;ratioP1;P1;durP2;ratioP2;P2;SDS_P1;SDS_P2;PMS_P1;PMS_P2;Temp;Humidity;BMP_temperature;BMP_pressure;BME280_temperature;BME280_humidity;BME280_pressure;Samples;Min_cycle;Max_cycle;Signal;HPM_P1;HPM_P2
2020/12/13 00:00:06;;;;;;;37.03;18.27;;;;;;;3.19;75.07;99478.94;5088394;28;20082;-67
2020/12/13 00:02:33;;;;;;;44.35;19.23;;;;;;;3.23;75.27;99481.44;5091606;28;20048;-66
2020/12/13 00:04:59;;;;;;;43.03;17.58;;;;;;;3.28;75.16;99479.59;5091830;28;20060;-66
2020/12/13 00:07:26;;;;;;;34.97;16.50;;;;;;;3.24;75.14;99490.91;5091700;28;20044;-65
2020/12/13 00:09:52;;;;;;;43.20;19.02;;;;;;;3.19;75.39;99479.81;5092002;28;20131;-64
2020/12/13 00:12:18;;;;;;;42.20;18.88;;;;;;;3.24;75.21;99475.38;5091651;28;20123;-67
2020/12/13 00:14:44;;;;;;;37.22;17.58;;;;;;;3.27;75.30;99488.25;5091887;28;20049;-66
2020/12/13 00:17:10;;;;;;;41.65;20.23;;;;;;;3.27;75.32;99482.22;5091961;28;20051;-66
2020/12/13 00:19:36;;;;;;;33.08;16.00;;;;;;;3.24;75.44;99496.09;5091700;28;20047;-66
2020/12/13 00:22:02;;;;;;;35.75;18.90;;;;;;;3.27;75.35;99485.66;5091646;28;20461;-64
2020/12/13 00:24:29;;;;;;;37.00;17.58;;;;;;;3.29;75.28;99495.97;5092013;28;20070;-65
2020/12/13 00:26:55;;;;;;;34.45;17.60;;;;;;;3.31;75.21;99495.06;5091425;28;20052;-65
2020/12/13 00:29:21;;;;;;;41.92;18.83;;;;;;;3.33;75.11;99501.09;5092553;28;20048;-65
2020/12/13 00:31:50;;;;;;;36.25;17.08;;;;;;;3.35;75.11;99496.72;5091489;28;20044;-64
2020/12/13 00:34:16;;;;;;;31.17;14.60;;;;;;;3.38;75.11;99503.59;5091381;28;20052;-66
2020/12/13 00:36:42;;;;;;;34.47;16.02;;;;;;;3.41;75.01;99500.06;5091577;28;20127;-65
2020/12/13 00:39:08;;;;;;;32.97;15.23;;;;;;;3.42;74.91;99509.53;5091825;28;20081;-65
2020/12/13 00:41:35;;;;;;;35.33;16.00;;;;;;;3.39;74.79;99505.28;5091085;28;20058;-64
2020/12/13 00:44:01;;;;;;;31.50;15.38;;;;;;;3.36;75.09;99507.94;5091152;28;20138;-65
2020/12/13 00:46:27;;;;;;;36.42;17.00;;;;;;;3.41;74.77;99510.44;5091603;28;20048;-65
2020/12/13 00:48:54;;;;;;;34.75;16.40;;;;;;;3.47;74.56;99507.72;5091135;28;20380;-65
2020/12/13 00:51:26;;;;;;;34.88;17.50;;;;;;;3.48;74.84;99512.84;5091327;28;20104;-65
2020/12/13 00:53:52;;;;;;;36.45;15.85;;;;;;;3.53;74.62;99507.56;5091442;28;20044;-65
2020/12/13 00:56:19;;;;;;;36.17;16.33;;;;;;;3.54;74.44;99511.84;5080911;28;20045;-64
2020/12/13 00:58:46;;;;;;;38.38;17.27;;;;;;;3.57;74.56;99504.91;5083565;28;20110;-65
2020/12/13 01:01:12;;;;;;;37.83;17.52;;;;;;;3.58;74.39;99505.75;5091237;28;20499;-65
2020/12/13 01:03:38;;;;;;;28.55;15.75;;;;;;;3.61;74.47;99508.28;5091411;28;20386;-65
2020/12/13 01:06:04;;;;;;;32.70;16.50;;;;;;;3.61;74.29;99508.28;5091912;28;20056;-65
2020/12/13 01:08:31;;;;;;;33.88;17.85;;;;;;;3.60;74.48;99511.75;5094453;28;20392;-66
2020/12/13 01:10:57;;;;;;;33.13;14.38;;;;;;;3.59;74.43;99515.22;5094760;28;20124;-65
2020/12/13 01:13:24;;;;;;;32.03;14.90;;;;;;;3.57;74.52;99511.81;5094711;28;20040;-65
2020/12/13 01:15:51;;;;;;;43.47;15.40;;;;;;;3.58;74.53;99513.53;5094464;28;20076;-65
2020/12/13 01:18:17;;;;;;;33.25;15.13;;;;;;;3.58;74.27;99518.72;5094691;28;20059;-64
2020/12/13 01:20:44;;;;;;;32.92;15.20;;;;;;;3.54;74.29;99511.84;5094810;28;20048;-70
2020/12/13 01:23:10;;;;;;;33.72;16.15;;;;;;;3.52;74.25;99517.06;5094220;28;20173;-65
2020/12/13 01:25:36;;;;;;;27.52;14.50;;;;;;;3.51;74.33;99527.47;5094410;28;20241;-66
2020/12/13 01:28:02;;;;;;;28.15;13.10;;;;;;;3.47;74.35;99520.66;5094120;28;20040;-68
2020/12/13 01:30:28;;;;;;;27.35;12.77;;;;;;;3.47;74.46;99531.03;5094540;28;20073;-66
2020/12/13 01:32:55;;;;;;;27.75;13.70;;;;;;;3.46;74.53;99532.75;5094037;28;20050;-66
2020/12/13 01:35:25;;;;;;;35.05;16.08;;;;;;;3.48;74.29;99530.13;5094573;28;20051;-65
2020/12/13 01:37:51;;;;;;;33.83;16.05;;;;;;;3.48;74.32;99537.91;5093916;28;20072;-65
2020/12/13 01:40:17;;;;;;;33.90;16.42;;;;;;;3.50;74.49;99530.97;5094348;28;20048;-65
2020/12/13 01:42:44;;;;;;;34.97;17.13;;;;;;;3.52;74.32;99535.22;5094278;28;20040;-65
2020/12/13 01:45:12;;;;;;;42.28;19.63;;;;;;;3.58;74.12;99536.84;5094217;28;20048;-64
2020/12/13 01:47:38;;;;;;;28.95;15.32;;;;;;;3.59;74.18;99541.16;5093881;28;20140;-65
2020/12/13 01:50:09;;;;;;;24.90;13.38;;;;;;;3.53;74.35;99541.25;5094596;28;20047;-65
2020/12/13 01:52:47;;;;;;;21.23;10.57;;;;;;;3.49;74.38;99543.06;5093780;28;20138;-64
2020/12/13 01:55:17;;;;;;;34.17;15.52;;;;;;;3.47;74.43;99538.81;5094328;28;20055;-65
2020/12/13 01:57:46;;;;;;;30.17;14.75;;;;;;;3.49;74.45;99537.03;5093338;28;20126;-64
2020/12/13 02:00:13;;;;;;;31.10;14.60;;;;;;;3.50;74.35;99536.13;5094148;28;20055;-67
2020/12/13 02:02:44;;;;;;;30.23;14.85;;;;;;;3.48;74.42;99541.34;5084837;28;20044;-67
2020/12/13 02:05:14;;;;;;;30.85;12.27;;;;;;;3.48;74.44;99537.91;5073810;28;20072;-66
2020/12/13 02:07:42;;;;;;;31.10;15.63;;;;;;;3.46;74.57;99544.88;5073341;28;20044;-65
2020/12/13 02:10:10;;;;;;;35.22;17.20;;;;;;;3.48;74.58;99543.09;5073845;28;20064;-67
2020/12/13 02:12:37;;;;;;;31.88;15.98;;;;;;;3.49;74.39;99544.81;5073097;28;20054;-65
2020/12/13 02:15:04;;;;;;;31.65;13.75;;;;;;;3.49;74.35;99543.06;5073540;28;20407;-64
2020/12/13 02:17:30;;;;;;;34.00;15.77;;;;;;;3.46;74.72;99550.06;5071901;28;20048;-64
2020/12/13 02:19:57;;;;;;;32.47;16.58;;;;;;;3.44;74.59;99547.50;5073642;28;20545;-66
2020/12/13 02:22:24;;;;;;;32.10;15.52;;;;;;;3.44;74.66;99549.22;5072690;28;20314;-64
2020/12/13 02:24:50;;;;;;;33.20;15.77;;;;;;;3.41;74.86;99539.78;5073614;28;20051;-65
2020/12/13 02:27:16;;;;;;;31.58;15.10;;;;;;;3.41;74.67;99546.72;5073271;28;20044;-66
2020/12/13 02:29:42;;;;;;;36.65;15.65;;;;;;;3.39;74.98;99544.16;5073053;28;20472;-65
2020/12/13 02:32:08;;;;;;;29.20;14.40;;;;;;;3.35;75.05;99543.38;5072707;28;20514;-65
2020/12/13 02:34:34;;;;;;;31.33;14.07;;;;;;;3.36;74.99;99547.66;5073134;28;20040;-65
2020/12/13 02:37:00;;;;;;;29.55;14.77;;;;;;;3.36;75.05;99544.22;5072701;28;20053;-65
2020/12/13 02:39:28;;;;;;;30.92;13.40;;;;;;;3.34;74.93;99546.84;5073037;28;20049;-65
2020/12/13 02:41:58;;;;;;;32.63;13.68;;;;;;;3.28;75.21;99541.75;5072868;28;20055;-65
2020/12/13 02:44:25;;;;;;;36.47;15.63;;;;;;;3.27;75.18;99547.81;5072999;28;20122;-65
2020/12/13 02:46:51;;;;;;;28.27;14.13;;;;;;;3.26;75.24;99542.69;5072553;28;20045;-65
2020/12/13 02:49:18;;;;;;;27.95;13.32;;;;;;;3.24;75.25;99539.28;5072843;28;20087;-65
2020/12/13 02:51:44;;;;;;;29.35;13.25;;;;;;;3.26;75.15;99545.28;5072454;28;20055;-64
2020/12/13 02:54:10;;;;;;;31.30;13.40;;;;;;;3.26;75.21;99553.91;5072611;28;20044;-64
2020/12/13 02:56:40;;;;;;;25.17;13.82;;;;;;;3.25;75.19;99547.00;5072635;28;20389;-65
2020/12/13 02:59:07;;;;;;;25.02;13.38;;;;;;;3.26;75.15;99545.28;5072404;28;20339;-64
2020/12/13 03:01:33;;;;;;;22.67;12.32;;;;;;;3.25;75.29;99547.00;5072420;28;20070;-65
2020/12/13 03:03:59;;;;;;;30.48;14.73;;;;;;;3.25;75.21;99552.19;5072429;28;20048;-65
2020/12/13 03:06:25;;;;;;;32.92;14.13;;;;;;;3.26;75.36;99558.22;5072648;28;20045;-65
2020/12/13 03:08:51;;;;;;;34.53;16.08;;;;;;;3.25;75.37;99557.38;5072184;28;20045;-64
2020/12/13 03:11:20;;;;;;;37.03;16.67;;;;;;;3.27;75.37;99555.59;5072234;28;20135;-66
2020/12/13 03:13:47;;;;;;;33.55;15.23;;;;;;;3.29;75.39;99566.78;5072137;28;20056;-64
2020/12/13 03:16:13;;;;;;;33.63;15.73;;;;;;;3.28;75.24;99561.63;5072558;28;20051;-64
2020/12/13 03:18:40;;;;;;;24.45;13.07;;;;;;;3.27;75.26;99554.75;5072002;28;20469;-65
2020/12/13 03:21:06;;;;;;;28.38;15.23;;;;;;;3.25;75.26;99559.97;5072401;28;20052;-65
2020/12/13 03:23:32;;;;;;;28.45;14.00;;;;;;;3.26;75.30;99561.66;5071861;28;20056;-65
2020/12/13 03:25:58;;;;;;;32.25;14.48;;;;;;;3.28;75.20;99570.25;5072055;28;20079;-65
2020/12/13 03:28:24;;;;;;;29.90;15.45;;;;;;;3.31;75.33;99571.94;5071752;28;20051;-66
2020/12/13 03:30:51;;;;;;;25.80;13.55;;;;;;;3.30;75.15;99565.91;5071691;28;20041;-65
2020/12/13 03:33:17;;;;;;;27.83;13.55;;;;;;;3.32;75.12;99577.09;5071437;28;20452;-64
2020/12/13 03:35:43;;;;;;;30.77;14.32;;;;;;;3.34;75.35;99577.94;5072118;28;20050;-65
2020/12/13 03:38:10;;;;;;;30.40;13.70;;;;;;;3.37;75.08;99571.84;5071846;28;20131;-65
2020/12/13 03:40:36;;;;;;;30.50;13.95;;;;;;;3.36;75.18;99580.50;5071809;28;20476;-65
2020/12/13 03:43:02;;;;;;;27.38;15.18;;;;;;;3.39;75.25;99585.59;5071763;28;20050;-65
2020/12/13 03:45:28;;;;;;;29.50;14.98;;;;;;;3.40;75.15;99581.28;5071696;28;20053;-65
2020/12/13 03:47:55;;;;;;;25.70;12.50;;;;;;;3.40;75.13;99584.72;5071783;28;20047;-65
2020/12/13 03:50:21;;;;;;;26.05;13.07;;;;;;;3.35;75.27;99594.31;5071620;28;20048;-65
2020/12/13 03:52:47;;;;;;;25.52;12.85;;;;;;;3.31;75.35;99592.66;5071192;28;20553;-65
2020/12/13 03:55:13;;;;;;;25.33;11.93;;;;;;;3.31;75.33;99583.16;5072096;28;20423;-66
2020/12/13 03:57:40;;;;;;;24.52;12.27;;;;;;;3.32;75.13;99590.03;5071436;28;20415;-65
2020/12/13 04:00:06;;;;;;;21.70;11.43;;;;;;;3.34;75.26;99596.06;5071988;28;20379;-65
2020/12/13 04:02:32;;;;;;;22.00;11.85;;;;;;;3.34;75.07;99593.47;5071680;28;20049;-65
2020/12/13 04:04:59;;;;;;;28.38;12.75;;;;;;;3.28;75.15;99595.31;5071637;28;20052;-65
2020/12/13 04:07:25;;;;;;;24.20;11.65;;;;;;;3.27;75.25;99597.03;5071448;28;20048;-65
2020/12/13 04:09:51;;;;;;;26.80;12.27;;;;;;;3.26;75.27;99597.94;5071902;28;20055;-65
2020/12/13 04:12:17;;;;;;;29.70;11.77;;;;;;;3.23;75.33;99600.59;5071223;28;20067;-65
2020/12/13 04:14:43;;;;;;;24.85;11.52;;;;;;;3.26;75.22;99590.16;5071960;28;20040;-66
2020/12/13 04:17:09;;;;;;;26.83;13.00;;;;;;;3.29;75.08;99600.47;5071618;28;20044;-65
2020/12/13 04:19:36;;;;;;;24.02;10.65;;;;;;;3.32;75.03;99591.78;5071699;28;20395;-65
2020/12/13 04:22:03;;;;;;;22.83;11.52;;;;;;;3.28;75.19;99592.72;5071648;28;20432;-64
2020/12/13 04:24:29;;;;;;;24.67;11.60;;;;;;;3.26;75.30;99597.06;5071427;28;20101;-64
2020/12/13 04:26:55;;;;;;;28.02;12.90;;;;;;;3.24;75.29;99594.53;5071666;28;20053;-65
2020/12/13 04:29:21;;;;;;;23.65;11.57;;;;;;;3.25;75.16;99595.38;5071208;28;20055;-64
2020/12/13 04:31:47;;;;;;;28.35;13.55;;;;;;;3.25;75.24;99587.59;5071439;28;20044;-64
2020/12/13 04:34:13;;;;;;;27.00;11.18;;;;;;;3.22;75.64;99588.53;5071231;28;20040;-64
2020/12/13 04:36:39;;;;;;;26.88;11.77;;;;;;;3.20;75.43;99595.47;5071583;28;20131;-65
2020/12/13 04:39:06;;;;;;;23.42;10.98;;;;;;;3.17;75.43;99595.53;5071312;28;20430;-65
2020/12/13 04:41:34;;;;;;;26.98;11.90;;;;;;;3.18;75.50;99593.78;5072722;28;20055;-66
2020/12/13 04:44:01;;;;;;;25.15;11.57;;;;;;;3.18;75.43;99601.56;5074856;28;20051;-65
2020/12/13 04:46:30;;;;;;;23.25;12.40;;;;;;;3.16;75.62;99604.19;5075263;28;20041;-65
2020/12/13 04:48:56;;;;;;;23.92;11.35;;;;;;;3.16;75.55;99599.00;5075002;28;20044;-65
2020/12/13 04:51:25;;;;;;;27.52;13.07;;;;;;;3.16;75.46;99604.19;5075126;28;20044;-64
2020/12/13 04:54:03;;;;;;;31.05;13.57;;;;;;;3.20;75.45;99599.78;5074743;28;20057;-65
2020/12/13 04:56:33;;;;;;;23.48;10.80;;;;;;;3.24;75.44;99599.69;5075217;28;20127;-64
2020/12/13 04:59:01;;;;;;;22.95;9.57;;;;;;;3.28;75.13;99609.13;5074494;28;20289;-64
2020/12/13 05:01:27;;;;;;;23.73;11.23;;;;;;;3.23;75.21;99605.75;5074843;28;20052;-64
2020/12/13 05:03:54;;;;;;;26.50;12.30;;;;;;;3.21;75.37;99607.53;5074661;28;20137;-64
2020/12/13 05:06:20;;;;;;;24.88;12.00;;;;;;;3.25;75.31;99611.78;5074671;28;20044;-65
2020/12/13 05:08:47;;;;;;;26.17;13.07;;;;;;;3.22;75.69;99619.59;5074817;28;20040;-65
2020/12/13 05:11:14;;;;;;;22.63;11.32;;;;;;;3.20;75.33;99618.78;5074578;28;20104;-66
2020/12/13 05:13:41;;;;;;;27.50;12.98;;;;;;;3.18;75.38;99612.78;5073974;28;20067;-64
2020/12/13 05:16:08;;;;;;;27.88;12.65;;;;;;;3.20;75.38;99621.38;5074482;28;20052;-64
2020/12/13 05:18:38;;;;;;;23.73;11.57;;;;;;;3.17;75.50;99620.56;5074333;28;20490;-66
2020/12/13 05:21:04;;;;;;;19.98;10.35;;;;;;;3.11;75.67;99624.09;5074649;28;20060;-65
2020/12/13 05:23:31;;;;;;;26.60;13.05;;;;;;;3.10;75.59;99625.00;5074053;28;20486;-66
2020/12/13 05:25:57;;;;;;;28.58;12.10;;;;;;;3.12;75.51;99628.41;5074056;28;20567;-66
2020/12/13 05:28:24;;;;;;;23.30;12.75;;;;;;;3.12;75.43;99633.59;5074181;28;20051;-65
2020/12/13 05:30:52;;;;;;;21.13;10.02;;;;;;;3.11;75.33;99647.41;5074298;28;20048;-65
2020/12/13 05:33:23;;;;;;;27.83;11.82;;;;;;;3.04;75.63;99638.06;5074024;28;20048;-64
2020/12/13 05:35:49;;;;;;;26.05;13.38;;;;;;;3.03;75.65;99644.13;5074129;28;20045;-65
2020/12/13 05:38:16;;;;;;;32.65;14.43;;;;;;;3.01;75.80;99643.28;5073920;28;20057;-65
2020/12/13 05:40:43;;;;;;;27.25;12.70;;;;;;;3.04;75.71;99645.81;5074238;28;20045;-64
2020/12/13 05:43:14;;;;;;;24.52;11.13;;;;;;;3.06;75.67;99644.91;5073598;28;20502;-64
2020/12/13 05:48:48;;;;;;;30.38;12.65;;;;;;;3.08;75.70;99644.03;5023231;28;20045;-65
2020/12/13 05:51:36;;;;;;;18.40;9.07;;;;;;;3.10;75.37;99650.03;5055910;28;20048;-64
2020/12/13 05:54:03;;;;;;;26.85;12.07;;;;;;;3.06;75.57;99649.25;5066615;28;20499;-64
2020/12/13 05:56:30;;;;;;;23.52;11.07;;;;;;;3.05;75.50;99652.72;4971250;28;20052;-64
2020/12/13 05:58:59;;;;;;;19.50;10.75;;;;;;;3.03;75.76;99657.06;5092800;28;20040;-65
2020/12/13 06:01:25;;;;;;;22.63;10.35;;;;;;;2.99;75.74;99658.84;5092801;28;20124;-64
2020/12/13 06:03:53;;;;;;;22.20;9.85;;;;;;;2.96;75.69;99652.88;5092128;28;20048;-65
2020/12/13 06:06:25;;;;;;;22.80;10.45;;;;;;;2.91;75.98;99659.84;5093906;28;20040;-64
2020/12/13 06:09:05;;;;;;;;;;;;;;;3.00;75.62;99660.56;5093816;28;20388;-63
2020/12/13 06:11:37;;;;;;;20.90;10.85;;;;;;;2.95;75.62;99664.97;5092843;28;19920;-64
2020/12/13 06:14:12;;;;;;;22.13;9.85;;;;;;;2.97;75.59;99670.13;5090745;28;20048;-64
2020/12/13 06:16:39;;;;;;;20.98;10.50;;;;;;;2.99;75.46;99673.53;5093186;28;20040;-64
2020/12/13 06:19:07;;;;;;;23.50;11.45;;;;;;;2.96;75.65;99671.00;5078198;28;20381;-64
2020/12/13 06:21:33;;;;;;;22.63;11.70;;;;;;;2.93;75.69;99679.69;5073687;28;20420;-64
2020/12/13 06:24:03;;;;;;;26.90;12.40;;;;;;;2.95;75.75;99685.69;5085860;28;20044;-65
2020/12/13 06:26:30;;;;;;;23.38;11.40;;;;;;;2.93;75.73;99676.25;5092317;28;20117;-67
2020/12/13 06:28:56;;;;;;;26.63;12.25;;;;;;;2.93;75.65;99673.66;5092977;28;20511;-67
2020/12/13 06:31:22;;;;;;;24.40;11.43;;;;;;;2.94;75.77;99680.53;5093155;28;20047;-66
2020/12/13 06:33:49;;;;;;;21.95;10.38;;;;;;;2.94;75.73;99690.91;5093122;28;20134;-67
2020/12/13 06:36:16;;;;;;;24.05;12.05;;;;;;;2.91;75.63;99686.59;5093514;28;20054;-67
2020/12/13 06:38:42;;;;;;;25.30;12.50;;;;;;;2.89;75.60;99685.78;5093345;28;20046;-67
2020/12/13 06:41:09;;;;;;;27.85;13.52;;;;;;;2.90;75.53;99696.97;5092963;28;20048;-67
2020/12/13 06:43:41;;;;;;;25.38;12.15;;;;;;;2.88;75.71;99691.81;5092995;28;20395;-67
2020/12/13 06:46:12;;;;;;;24.45;11.50;;;;;;;2.93;75.50;99699.53;5093303;28;20436;-67
2020/12/13 06:48:38;;;;;;;26.50;11.80;;;;;;;2.95;75.33;99705.56;5093070;28;20054;-67
2020/12/13 06:51:08;;;;;;;26.67;11.05;;;;;;;2.89;75.44;99711.66;5093104;28;20044;-67
2020/12/13 06:53:35;;;;;;;24.10;12.18;;;;;;;2.89;75.59;99708.22;5092956;28;20051;-67
2020/12/13 06:56:09;;;;;;;25.40;11.68;;;;;;;2.87;75.57;99704.78;5092661;28;20048;-67
2020/12/13 06:58:46;;;;;;;24.55;12.98;;;;;;;2.84;75.59;99707.44;5092767;28;20047;-67
2020/12/13 07:01:17;;;;;;;25.85;12.55;;;;;;;2.88;75.50;99722.03;5092400;28;20460;-68
2020/12/13 07:03:43;;;;;;;28.85;13.20;;;;;;;2.85;75.65;99717.78;5091966;28;20051;-66
2020/12/13 07:06:15;;;;;;;26.98;14.98;;;;;;;2.87;75.51;99721.19;5092797;28;20044;-66
2020/12/13 07:08:47;;;;;;;27.02;13.32;;;;;;;2.89;75.43;99724.59;5092695;28;20478;-67
2020/12/13 07:11:13;;;;;;;23.92;12.40;;;;;;;2.86;75.51;99732.41;5092590;28;20048;-67
2020/12/13 07:13:43;;;;;;;25.13;13.45;;;;;;;2.81;75.55;99731.66;5092426;28;20131;-66
2020/12/13 07:16:12;;;;;;;24.92;12.18;;;;;;;2.81;75.66;99735.97;5092730;28;20078;-66
2020/12/13 07:18:43;;;;;;;24.35;11.98;;;;;;;2.80;75.46;99742.03;5092575;28;20134;-67
2020/12/13 07:21:09;;;;;;;22.90;11.15;;;;;;;2.79;75.44;99753.25;5092643;28;20135;-67
2020/12/13 07:23:36;;;;;;;24.80;12.18;;;;;;;2.75;75.53;99745.53;5091977;28;20487;-66
2020/12/13 07:26:05;;;;;;;25.42;12.07;;;;;;;2.74;75.54;99746.41;5092487;28;20044;-67
2020/12/13 07:28:32;;;;;;;25.20;12.45;;;;;;;2.76;75.64;99748.97;5102491;28;20140;-67
2020/12/13 07:31:02;;;;;;;25.13;12.13;;;;;;;2.80;75.46;99744.63;5113017;28;20048;-67
2020/12/13 07:33:29;;;;;;;21.42;11.43;;;;;;;2.84;75.45;99746.28;5112334;28;20555;-68
2020/12/13 07:35:55;;;;;;;25.48;11.98;;;;;;;2.83;75.33;99754.91;5112465;28;20052;-68
2020/12/13 07:38:22;;;;;;;21.92;11.48;;;;;;;2.78;75.59;99754.13;5112644;28;20433;-68
2020/12/13 07:40:49;;;;;;;24.38;12.18;;;;;;;2.79;75.65;99756.69;5112610;28;20128;-67
2020/12/13 07:43:16;;;;;;;29.17;12.55;;;;;;;2.86;75.44;99758.31;5112405;28;20380;-68
2020/12/13 07:45:46;;;;;;;22.00;11.13;;;;;;;2.83;75.20;99760.94;5112422;28;20410;-68
2020/12/13 07:48:12;;;;;;;21.60;10.43;;;;;;;2.83;75.45;99765.28;5112117;28;20533;-67
2020/12/13 07:50:44;;;;;;;22.02;11.55;;;;;;;2.82;75.45;99764.41;5112414;28;20142;-68
2020/12/13 07:53:10;;;;;;;32.17;15.38;;;;;;;2.84;75.18;99766.97;5112095;28;20058;-68
2020/12/13 07:55:41;;;;;;;22.40;10.77;;;;;;;2.80;75.07;99773.94;5111922;28;20552;-66
2020/12/13 07:58:08;;;;;;;18.60;9.73;;;;;;;2.85;74.99;99768.69;5112089;28;20048;-67
2020/12/13 08:00:35;;;;;;;15.63;10.27;;;;;;;2.84;75.08;99777.34;5112321;28;20045;-67
2020/12/13 08:03:01;;;;;;;18.48;10.60;;;;;;;2.86;74.94;99785.94;5112085;28;20050;-67
2020/12/13 08:05:28;;;;;;;17.00;10.02;;;;;;;2.88;74.86;99786.75;5112111;28;20134;-67
2020/12/13 08:07:58;;;;;;;17.60;9.82;;;;;;;2.86;74.80;99786.78;5111917;28;20140;-67
2020/12/13 08:10:28;;;;;;;18.10;10.73;;;;;;;2.87;74.75;99783.31;5112084;28;20062;-66
2020/12/13 08:12:54;;;;;;;17.85;10.50;;;;;;;2.81;74.81;99790.31;5111868;28;20304;-66
2020/12/13 08:15:20;;;;;;;14.80;7.88;;;;;;;2.82;74.80;99794.63;5112128;28;20043;-66
2020/12/13 08:17:59;;;;;;;17.02;8.50;;;;;;;2.76;74.61;99795.56;5115487;28;20044;-67
2020/12/13 08:20:28;;;;;;;27.58;13.90;;;;;;;2.75;74.75;99788.69;5116621;28;20047;-67
2020/12/13 08:22:55;;;;;;;27.55;14.15;;;;;;;2.74;74.56;99807.69;5115868;28;20050;-67
2020/12/13 08:25:21;;;;;;;20.20;11.73;;;;;;;2.70;74.66;99791.31;5116318;28;20065;-66
2020/12/13 08:27:49;;;;;;;23.33;13.45;;;;;;;2.70;74.47;99801.66;5115635;28;20568;-67
2020/12/13 08:30:18;;;;;;;24.33;13.88;;;;;;;2.70;74.37;99803.41;5116482;28;20198;-67
2020/12/13 08:32:45;;;;;;;21.63;12.35;;;;;;;2.73;74.44;99811.16;5115395;28;20513;-67
2020/12/13 08:35:13;;;;;;;19.65;10.38;;;;;;;2.71;74.34;99806.00;5116089;28;20048;-66
2020/12/13 08:37:40;;;;;;;18.42;9.15;;;;;;;2.70;74.20;99816.34;5115810;28;20050;-66
2020/12/13 08:40:08;;;;;;;17.42;10.60;;;;;;;2.64;74.37;99819.88;5116196;28;20387;-66
2020/12/13 08:42:34;;;;;;;13.75;8.80;;;;;;;2.63;74.19;99825.94;5115330;28;20518;-66
2020/12/13 08:45:00;;;;;;;16.13;8.23;;;;;;;2.65;74.40;99829.34;5116054;28;20043;-66
2020/12/13 08:47:31;;;;;;;15.48;8.55;;;;;;;2.67;74.29;99830.19;5115731;28;20039;-66
2020/12/13 08:49:57;;;;;;;16.88;9.27;;;;;;;2.67;74.01;99825.00;5116460;28;20074;-65
2020/12/13 08:52:26;;;;;;;17.20;9.02;;;;;;;2.67;74.10;99835.34;5115295;28;20146;-67
2020/12/13 08:54:54;;;;;;;14.63;9.10;;;;;;;2.67;74.06;99835.34;5115713;28;20040;-66
2020/12/13 08:57:30;;;;;;;19.05;10.10;;;;;;;2.66;74.20;99833.66;5115551;28;20047;-68
2020/12/13 09:00:01;;;;;;;16.73;9.63;;;;;;;2.72;74.17;99836.19;5115973;28;20039;-67
2020/12/13 09:02:27;;;;;;;19.50;10.25;;;;;;;2.77;74.03;99837.84;5115025;28;20495;-67
2020/12/13 09:04:57;;;;;;;16.63;9.90;;;;;;;2.76;74.10;99839.56;5115369;28;20054;-67
2020/12/13 09:07:31;;;;;;;15.43;9.10;;;;;;;2.78;73.95;99844.72;5115392;28;20043;-67
2020/12/13 09:09:58;;;;;;;15.43;9.40;;;;;;;2.79;73.91;99843.84;5115630;28;20097;-67
2020/12/13 09:12:28;;;;;;;14.82;7.55;;;;;;;2.81;73.89;99840.38;5115141;28;20040;-66
2020/12/13 09:14:55;;;;;;;15.02;8.65;;;;;;;2.79;73.83;99842.13;5115863;28;20059;-67
2020/12/13 09:17:25;;;;;;;20.02;10.20;;;;;;;2.80;74.18;99842.97;5114578;28;20506;-67
2020/12/13 09:19:51;;;;;;;13.45;8.55;;;;;;;2.80;73.89;99845.56;5115669;28;20054;-66
2020/12/13 09:22:22;;;;;;;14.95;8.95;;;;;;;2.75;73.96;99843.91;5115111;28;20142;-67
2020/12/13 09:24:50;;;;;;;14.80;7.70;;;;;;;2.75;73.88;99850.81;5111636;28;20050;-68
2020/12/13 09:27:23;;;;;;;15.73;7.68;;;;;;;2.72;74.07;99841.34;5094108;28;20048;-66
2020/12/13 09:29:50;;;;;;;16.52;8.20;;;;;;;2.72;73.95;99846.53;5074658;28;20483;-66
2020/12/13 09:32:18;;;;;;;11.07;6.10;;;;;;;2.71;73.70;99843.97;5074518;28;20051;-66
2020/12/13 09:34:44;;;;;;;13.95;8.15;;;;;;;2.70;73.82;99834.47;5074631;28;20048;-67
2020/12/13 09:37:12;;;;;;;16.35;8.27;;;;;;;2.71;73.59;99838.78;5073845;28;20040;-65
2020/12/13 09:39:39;;;;;;;15.77;8.38;;;;;;;2.69;73.86;99840.50;5093206;28;20047;-67
2020/12/13 09:42:06;;;;;;;13.07;7.88;;;;;;;2.65;73.71;99834.53;5094414;28;20435;-67
2020/12/13 09:44:32;;;;;;;16.10;7.68;;;;;;;2.65;73.79;99834.53;5094490;28;20545;-67
2020/12/13 09:47:00;;;;;;;15.55;7.80;;;;;;;2.65;73.99;99838.84;5094251;28;20048;-67
2020/12/13 09:49:26;;;;;;;14.10;8.10;;;;;;;2.66;73.81;99833.66;5094371;28;20498;-66
2020/12/13 09:51:56;;;;;;;17.90;9.98;;;;;;;2.69;73.88;99836.19;5094108;28;20060;-67
2020/12/13 09:54:22;;;;;;;18.42;8.07;;;;;;;2.74;73.93;99837.00;5093662;28;20040;-67
2020/12/13 09:56:48;;;;;;;9.82;5.53;;;;;;;2.80;73.56;99824.84;5093792;28;20147;-67
2020/12/13 09:59:15;;;;;;;14.10;7.60;;;;;;;2.72;73.51;99825.81;5094175;28;20050;-67
2020/12/13 10:01:41;;;;;;;16.95;8.55;;;;;;;2.72;73.81;99831.00;5093955;28;20439;-67
2020/12/13 10:04:08;;;;;;;15.35;8.07;;;;;;;2.72;73.67;99836.19;5093586;28;20225;-68
2020/12/13 10:06:47;;;;;;;17.42;8.73;;;;;;;2.67;73.57;99832.78;5093963;28;20473;-67
2020/12/13 10:09:14;;;;;;;17.83;8.70;;;;;;;2.67;73.54;99831.91;5093455;28;20076;-67
2020/12/13 10:11:42;;;;;;;22.42;12.55;;;;;;;2.68;73.57;99834.47;5093612;28;20048;-66
2020/12/13 10:14:11;;;;;;;19.25;10.85;;;;;;;2.72;73.37;99831.00;5093825;28;20130;-67
2020/12/13 10:16:38;;;;;;;21.90;9.15;;;;;;;2.70;73.44;99826.69;5093500;28;20617;-67
2020/12/13 10:19:05;;;;;;;19.25;10.35;;;;;;;2.72;73.27;99830.16;5093646;28;20050;-67
2020/12/13 10:21:32;;;;;;;15.30;9.38;;;;;;;2.75;73.16;99825.78;5093704;28;20047;-67
2020/12/13 10:23:59;;;;;;;18.48;10.05;;;;;;;2.80;73.10;99833.47;5093283;28;20059;-67
2020/12/13 10:26:27;;;;;;;15.05;8.40;;;;;;;2.82;73.16;99818.78;5093300;28;20054;-67
2020/12/13 10:28:53;;;;;;;18.35;9.30;;;;;;;2.84;73.31;99821.34;5093295;28;20044;-67
2020/12/13 10:31:25;;;;;;;18.58;10.80;;;;;;;2.87;73.42;99818.72;5093636;28;20044;-67
2020/12/13 10:33:52;;;;;;;16.92;9.43;;;;;;;2.90;73.07;99829.88;5093299;28;20395;-67
2020/12/13 10:36:18;;;;;;;17.55;10.55;;;;;;;2.93;73.15;99831.59;5093138;28;20418;-66
2020/12/13 10:38:44;;;;;;;10.60;5.53;;;;;;;2.94;73.03;99822.94;5092085;28;20047;-67
2020/12/13 10:41:10;;;;;;;15.77;10.07;;;;;;;2.87;73.08;99821.28;5093147;28;20135;-66
2020/12/13 10:43:37;;;;;;;20.85;10.38;;;;;;;2.87;73.05;99819.56;5092761;28;20052;-66
2020/12/13 10:46:04;;;;;;;14.23;8.20;;;;;;;2.86;72.96;99820.44;5093022;28;20365;-66
2020/12/13 10:48:31;;;;;;;18.30;9.73;;;;;;;2.81;72.93;99826.56;5092982;28;20048;-65
2020/12/13 10:50:58;;;;;;;18.02;9.40;;;;;;;2.80;73.25;99814.50;5093300;28;20084;-66
2020/12/13 10:53:25;;;;;;;16.83;8.93;;;;;;;2.81;73.14;99813.63;5093014;28;20048;-66
2020/12/13 10:55:52;;;;;;;19.10;9.80;;;;;;;2.85;73.12;99823.06;5092954;28;20059;-67
2020/12/13 10:58:18;;;;;;;17.77;8.70;;;;;;;2.90;72.85;99824.69;5092435;28;20264;-67
2020/12/13 11:00:44;;;;;;;17.83;8.65;;;;;;;2.88;72.83;99828.19;5093121;28;20072;-67
2020/12/13 11:03:11;;;;;;;19.13;10.20;;;;;;;2.87;72.97;99823.88;5090218;28;20051;-68
2020/12/13 11:05:37;;;;;;;19.73;9.60;;;;;;;2.83;72.87;99822.22;5091610;28;20504;-68
2020/12/13 11:08:04;;;;;;;18.63;10.23;;;;;;;2.82;73.14;99820.50;5091107;28;20052;-67
2020/12/13 11:10:30;;;;;;;19.00;9.95;;;;;;;2.80;73.22;99819.69;5091730;28;20044;-68
2020/12/13 11:12:56;;;;;;;18.17;9.93;;;;;;;2.81;73.08;99823.97;5091300;28;20054;-66
2020/12/13 11:15:22;;;;;;;16.98;9.05;;;;;;;2.84;72.96;99827.38;5091032;28;20043;-67
2020/12/13 11:17:48;;;;;;;15.15;7.90;;;;;;;2.84;73.00;99816.16;5090882;28;20700;-67
2020/12/13 11:20:14;;;;;;;12.07;7.15;;;;;;;2.85;72.76;99823.06;5091571;28;20097;-68
2020/12/13 11:22:40;;;;;;;19.65;9.75;;;;;;;2.81;72.82;99823.97;5091024;28;20106;-67
2020/12/13 11:25:07;;;;;;;18.33;9.77;;;;;;;2.80;72.96;99823.13;5091443;28;20124;-67
2020/12/13 11:27:35;;;;;;;17.45;9.77;;;;;;;2.77;73.08;99817.13;5090383;28;20502;-66
2020/12/13 11:30:01;;;;;;;18.52;10.30;;;;;;;2.80;73.14;99822.28;5091728;28;20093;-67